createdAt,value
2023-02-11T00:00:23.873Z,69.52
2023-02-11T00:03:10.960Z,69.59
2023-02-11T00:05:38.171Z,69.49
2023-02-11T00:08:05.557Z,69.60
2023-02-11T00:10:32.751Z,69.60
2023-02-11T00:13:00.189Z,69.57
2023-02-11T00:15:27.357Z,69.58
2023-02-11T00:17:54.532Z,69.60
2023-02-11T00:20:21.661Z,69.56
2023-02-11T00:22:48.791Z,69.60
2023-02-11T00:25:15.984Z,69.72
2023-02-11T00:27:43.033Z,69.65
2023-02-11T00:30:11.492Z,69.45
2023-02-11T00:32:38.664Z,69.58
2023-02-11T00:35:06.273Z,69.61
2023-02-11T00:37:36.501Z,69.60
2023-02-11T00:40:06.727Z,69.77
2023-02-11T00:42:35.813Z,69.60
2023-02-11T00:45:03.051Z,69.66
2023-02-11T00:47:30.350Z,69.77
2023-02-11T00:49:57.546Z,69.65
2023-02-11T00:52:27.690Z,69.70
2023-02-11T00:54:54.790Z,69.75
2023-02-11T00:57:21.941Z,69.72
2023-02-11T00:59:50.887Z,69.76
2023-02-11T01:02:19.062Z,69.76
2023-02-11T01:04:46.108Z,69.76
2023-02-11T01:07:13.334Z,69.73
2023-02-11T01:09:40.699Z,69.78
2023-02-11T01:12:07.842Z,69.84
2023-02-11T01:14:35.073Z,69.85
2023-02-11T01:17:02.245Z,69.79
2023-02-11T01:19:29.419Z,69.74
2023-02-11T01:21:56.589Z,69.76
2023-02-11T01:24:23.699Z,69.84
2023-02-11T01:26:50.875Z,69.76
2023-02-11T01:29:18.257Z,69.78
2023-02-11T01:31:45.399Z,69.85
2023-02-11T01:34:12.660Z,69.83
2023-02-11T01:36:40.400Z,69.86
2023-02-11T01:39:08.826Z,69.87
2023-02-11T01:41:36.548Z,69.84
2023-02-11T01:44:48.958Z,69.86
2023-02-11T01:47:16.430Z,69.85
2023-02-11T01:49:47.841Z,69.87
2023-02-11T01:52:21.712Z,69.95
2023-02-11T01:55:21.104Z,69.78
2023-02-11T01:57:53.841Z,69.92
2023-02-11T02:00:36.858Z,69.87
2023-02-11T02:03:20.265Z,69.96
2023-02-11T02:05:51.777Z,69.88
2023-02-11T02:08:32.233Z,70.00
2023-02-11T02:11:03.151Z,69.90
2023-02-11T02:13:35.332Z,69.89
2023-02-11T02:16:05.491Z,69.93
2023-02-11T02:18:56.054Z,69.97
2023-02-11T02:21:44.583Z,69.93
2023-02-11T02:24:36.875Z,70.01
2023-02-11T02:27:26.140Z,70.07
2023-02-11T02:30:02.335Z,70.04
2023-02-11T02:32:41.639Z,70.05
2023-02-11T02:35:28.041Z,69.97
2023-02-11T02:38:03.033Z,70.02
2023-02-11T02:40:35.707Z,70.05
2023-02-11T02:43:04.672Z,70.09
2023-02-11T02:45:33.466Z,69.97
2023-02-11T02:48:00.589Z,69.99
2023-02-11T02:50:33.733Z,70.05
2023-02-11T02:53:06.881Z,70.03
2023-02-11T02:56:02.592Z,69.95
2023-02-11T02:58:47.081Z,70.04
2023-02-11T03:01:26.901Z,70.09
2023-02-11T03:04:08.670Z,70.04
2023-02-11T03:07:00.674Z,70.09
2023-02-11T03:09:39.015Z,70.02
2023-02-11T03:12:07.527Z,70.06
2023-02-11T03:14:36.495Z,70.12
2023-02-11T03:17:06.664Z,70.14
2023-02-11T03:19:39.489Z,70.15
2023-02-11T03:22:12.378Z,70.05
2023-02-11T03:24:41.731Z,70.01
2023-02-11T03:27:33.152Z,70.17
2023-02-11T03:30:14.945Z,70.04
2023-02-11T03:32:50.749Z,70.09
2023-02-11T03:35:22.255Z,70.15
2023-02-11T03:37:57.528Z,70.14
2023-02-11T03:40:32.655Z,70.15
2023-02-11T03:43:05.642Z,70.10
2023-02-11T03:45:33.608Z,70.09
2023-02-11T03:48:06.241Z,70.07
2023-02-11T03:50:36.218Z,70.04
2023-02-11T03:53:05.086Z,70.12
2023-02-11T03:55:37.320Z,70.11
2023-02-11T03:58:04.881Z,70.11
2023-02-11T04:00:34.852Z,70.03
2023-02-11T04:03:02.087Z,70.13
2023-02-11T04:05:29.631Z,70.13
2023-02-11T04:07:56.638Z,70.14
2023-02-11T04:10:24.381Z,70.13
2023-02-11T04:12:51.658Z,70.19
2023-02-11T04:15:19.037Z,70.13
2023-02-11T04:17:46.131Z,70.14
2023-02-11T04:20:13.894Z,70.23
2023-02-11T04:22:41.048Z,70.22
2023-02-11T04:25:09.480Z,70.19
2023-02-11T04:27:37.117Z,70.18
2023-02-11T04:30:05.765Z,70.25
2023-02-11T04:32:32.851Z,70.15
2023-02-11T04:35:00.049Z,70.16
2023-02-11T04:37:27.174Z,70.29
2023-02-11T04:39:54.353Z,70.27
2023-02-11T04:42:21.660Z,70.25
2023-02-11T04:44:48.856Z,70.24
2023-02-11T04:47:16.008Z,70.09
2023-02-11T04:49:43.142Z,70.20
2023-02-11T04:52:10.795Z,70.25
2023-02-11T04:54:37.920Z,70.32
2023-02-11T04:57:05.075Z,70.24
2023-02-11T04:59:32.145Z,70.25
2023-02-11T05:01:59.295Z,70.28
2023-02-11T05:04:26.479Z,70.30
2023-02-11T05:06:53.650Z,70.24
2023-02-11T05:09:20.751Z,70.29
2023-02-11T05:11:48.048Z,70.28
2023-02-11T05:14:15.303Z,70.37
2023-02-11T05:16:42.502Z,70.32
2023-02-11T05:19:09.683Z,70.30
2023-02-11T05:21:36.831Z,70.30
2023-02-11T05:24:04.267Z,70.34
2023-02-11T05:26:32.208Z,70.32
2023-02-11T05:28:59.412Z,70.36
2023-02-11T05:31:26.568Z,70.41
2023-02-11T05:33:53.666Z,70.44
2023-02-11T05:36:20.758Z,70.39
2023-02-11T05:38:47.806Z,70.45
2023-02-11T05:41:15.089Z,70.44
2023-02-11T05:43:42.445Z,70.51
2023-02-11T05:46:09.690Z,70.57
2023-02-11T05:48:36.924Z,70.56
2023-02-11T05:51:04.293Z,70.55
2023-02-11T05:53:31.504Z,70.67
2023-02-11T05:55:58.637Z,70.59
2023-02-11T05:58:25.828Z,70.60
2023-02-11T06:00:53.051Z,70.62
2023-02-11T06:03:20.510Z,70.66
2023-02-11T06:05:47.668Z,70.69
2023-02-11T06:08:14.868Z,70.65
2023-02-11T06:10:45.366Z,70.75
2023-02-11T06:13:12.500Z,70.74
2023-02-11T06:15:39.990Z,70.78
2023-02-11T06:18:08.154Z,70.83
2023-02-11T06:20:35.688Z,70.83
2023-02-11T06:23:03.121Z,70.86
2023-02-11T06:25:30.195Z,70.79
2023-02-11T06:27:57.381Z,70.81
2023-02-11T06:30:24.482Z,70.83
2023-02-11T06:32:51.695Z,70.88
2023-02-11T06:35:18.905Z,70.93
2023-02-11T06:37:47.052Z,70.97
2023-02-11T06:40:14.286Z,70.95
2023-02-11T06:42:41.856Z,71.02
2023-02-11T06:45:10.965Z,70.98
2023-02-11T06:47:38.574Z,70.97
2023-02-11T06:50:07.641Z,71.04
2023-02-11T06:52:34.974Z,71.10
2023-02-11T06:55:02.713Z,71.00
2023-02-11T06:57:30.912Z,71.07
2023-02-11T06:59:58.140Z,71.14
2023-02-11T07:02:25.356Z,71.08
2023-02-11T07:04:52.731Z,71.14
2023-02-11T07:07:19.820Z,71.11
2023-02-11T07:09:46.878Z,71.13
2023-02-11T07:12:13.993Z,71.12
2023-02-11T07:14:41.120Z,71.04
2023-02-11T07:17:08.244Z,71.20
2023-02-11T07:19:35.576Z,71.18
2023-02-11T07:22:02.647Z,71.19
2023-02-11T07:24:29.824Z,71.24
2023-02-11T07:26:56.947Z,71.30
2023-02-11T07:29:24.078Z,71.21
2023-02-11T07:31:51.205Z,71.28
2023-02-11T07:34:18.449Z,71.24
2023-02-11T07:36:46.101Z,71.25
2023-02-11T07:39:13.725Z,71.28
2023-02-11T07:41:41.336Z,71.27
2023-02-11T07:44:08.490Z,71.22
2023-02-11T07:46:36.009Z,71.34
2023-02-11T07:49:03.737Z,71.29
2023-02-11T07:51:31.889Z,71.37
2023-02-11T07:54:00.274Z,71.36
2023-02-11T07:56:28.730Z,71.40
2023-02-11T07:58:57.003Z,71.37
2023-02-11T08:01:28.509Z,71.39
2023-02-11T08:03:57.169Z,71.40
2023-02-11T08:06:26.320Z,71.55
2023-02-11T08:08:53.643Z,71.53
2023-02-11T08:11:25.965Z,71.46
2023-02-11T08:13:54.860Z,71.49
2023-02-11T08:16:24.795Z,71.53
2023-02-11T08:18:53.222Z,71.49
2023-02-11T08:21:21.439Z,71.53
2023-02-11T08:23:49.860Z,71.56
2023-02-11T08:26:22.660Z,71.62
2023-02-11T08:28:51.731Z,71.62
2023-02-11T08:31:23.556Z,71.72
2023-02-11T08:33:51.035Z,71.67
2023-02-11T08:36:23.402Z,71.72
2023-02-11T08:38:50.492Z,71.70
2023-02-11T08:41:18.257Z,71.74
2023-02-11T08:43:46.242Z,71.79
2023-02-11T08:46:15.716Z,71.73
2023-02-11T08:48:43.293Z,71.63
2023-02-11T08:51:14.458Z,71.76
2023-02-11T08:53:41.839Z,71.73
2023-02-11T08:56:13.247Z,71.72
2023-02-11T08:58:41.079Z,71.88
2023-02-11T09:01:13.655Z,71.76
2023-02-11T09:03:40.893Z,71.79
2023-02-11T09:06:10.027Z,71.78
2023-02-11T09:08:38.786Z,71.91
2023-02-11T09:11:06.191Z,71.78
2023-02-11T09:13:33.749Z,71.85
2023-02-11T09:16:02.346Z,71.87
2023-02-11T09:18:29.938Z,71.95
2023-02-11T09:21:09.123Z,71.96
2023-02-11T09:23:36.641Z,72.02
2023-02-11T09:26:09.490Z,72.00
2023-02-11T09:28:36.933Z,71.97
2023-02-11T09:31:09.185Z,72.00
2023-02-11T09:33:37.348Z,72.12
2023-02-11T09:36:06.363Z,72.21
2023-02-11T09:38:33.984Z,72.18
2023-02-11T09:41:04.146Z,72.17
2023-02-11T09:43:46.503Z,72.18
2023-02-11T09:46:16.345Z,72.20
2023-02-11T09:48:46.437Z,72.12
2023-02-11T09:51:20.864Z,72.12
2023-02-11T09:53:54.615Z,72.23
2023-02-11T09:56:22.767Z,72.23
2023-02-11T09:58:49.819Z,72.26
2023-02-11T10:01:35.879Z,72.28
2023-02-11T10:04:40.269Z,72.29
2023-02-11T10:07:18.217Z,72.29
2023-02-11T10:09:48.293Z,72.36
2023-02-11T10:12:24.497Z,72.41
2023-02-11T10:14:57.789Z,72.48
2023-02-11T10:17:52.838Z,72.45
2023-02-11T10:20:24.985Z,72.52
2023-02-11T10:22:58.026Z,72.58
2023-02-11T10:25:28.400Z,72.38
2023-02-11T10:27:58.971Z,72.53
2023-02-11T10:30:42.784Z,72.54
2023-02-11T10:33:25.646Z,72.54
2023-02-11T10:35:52.849Z,72.61
2023-02-11T10:38:20.233Z,72.52
2023-02-11T10:40:47.527Z,72.46
2023-02-11T10:43:16.500Z,72.59
2023-02-11T10:45:50.083Z,72.63
2023-02-11T10:48:35.868Z,72.58
2023-02-11T10:51:39.648Z,72.64
2023-02-11T10:54:19.500Z,72.65
2023-02-11T10:56:50.648Z,72.55
2023-02-11T10:59:30.461Z,72.60
2023-02-11T11:02:18.709Z,72.71
2023-02-11T11:04:47.328Z,72.73
2023-02-11T11:07:25.132Z,72.82
2023-02-11T11:09:52.292Z,72.79
2023-02-11T11:12:31.374Z,72.83
2023-02-11T11:15:03.694Z,72.73
2023-02-11T11:17:31.031Z,72.88
2023-02-11T11:20:27.522Z,72.82
2023-02-11T11:23:09.356Z,72.86
2023-02-11T11:25:41.200Z,72.91
2023-02-11T11:28:21.824Z,73.00
2023-02-11T11:30:50.219Z,73.11
2023-02-11T11:33:22.998Z,72.99
2023-02-11T11:36:03.996Z,72.95
2023-02-11T11:38:33.478Z,73.00
2023-02-11T11:41:22.557Z,72.94
2023-02-11T11:44:03.644Z,72.97
2023-02-11T11:46:39.281Z,73.06
2023-02-11T11:49:25.771Z,73.08
2023-02-11T11:52:06.232Z,73.00
2023-02-11T11:54:34.484Z,73.08
2023-02-11T11:57:13.316Z,73.15
2023-02-11T11:59:41.734Z,73.13
2023-02-11T12:02:33.206Z,73.16
2023-02-11T12:05:02.838Z,73.16
2023-02-11T12:07:40.871Z,73.11
2023-02-11T12:10:53.854Z,73.20
2023-02-11T12:13:48.832Z,73.19
2023-02-11T12:16:44.418Z,73.18
2023-02-11T12:19:32.867Z,73.33
2023-02-11T12:22:24.614Z,73.37
2023-02-11T12:25:18.965Z,73.33
2023-02-11T12:28:08.133Z,73.38
2023-02-11T12:30:44.189Z,73.47
2023-02-11T12:33:45.615Z,73.46
2023-02-11T12:37:07.854Z,73.36
2023-02-11T12:39:47.372Z,73.45
2023-02-11T12:42:48.545Z,73.41
2023-02-11T12:46:07.213Z,73.50
2023-02-11T12:48:41.088Z,73.54
2023-02-11T12:51:32.116Z,73.51
2023-02-11T12:54:09.363Z,73.52
2023-02-11T12:56:59.423Z,73.54
2023-02-11T12:59:55.505Z,73.58
2023-02-11T13:02:28.445Z,73.49
2023-02-11T13:04:59.563Z,73.55
2023-02-11T13:07:43.247Z,73.56
2023-02-11T13:10:23.200Z,73.52
2023-02-11T13:13:11.165Z,73.47
2023-02-11T13:15:39.127Z,73.63
2023-02-11T13:18:25.099Z,73.59
2023-02-11T13:21:01.421Z,73.58
2023-02-11T13:23:39.897Z,73.57
2023-02-11T13:26:26.055Z,73.59
2023-02-11T13:29:09.674Z,73.64
2023-02-11T13:31:36.853Z,73.57
2023-02-11T13:34:04.120Z,73.68
2023-02-11T13:36:33.170Z,73.69
2023-02-11T13:39:06.402Z,73.68
2023-02-11T13:41:41.529Z,73.73
2023-02-11T13:44:08.713Z,73.65
2023-02-11T13:47:04.879Z,73.68
2023-02-11T13:49:42.654Z,73.62
2023-02-11T13:52:22.273Z,73.79
2023-02-11T13:54:53.621Z,73.70
2023-02-11T13:57:20.663Z,73.81
2023-02-11T13:59:57.339Z,73.73
2023-02-11T14:02:50.135Z,73.67
2023-02-11T14:05:43.590Z,73.77
2023-02-11T14:08:29.308Z,73.78
2023-02-11T14:11:02.000Z,73.84
2023-02-11T14:13:58.516Z,73.80
2023-02-11T14:16:37.606Z,73.82
2023-02-11T14:19:06.765Z,73.81
2023-02-11T14:21:45.675Z,73.86
2023-02-11T14:24:13.146Z,73.87
2023-02-11T14:26:48.600Z,73.83
2023-02-11T14:29:32.005Z,73.99
2023-02-11T14:32:05.352Z,73.93
2023-02-11T14:35:04.988Z,74.01
2023-02-11T14:37:56.624Z,73.99
2023-02-11T14:40:31.058Z,74.07
2023-02-11T14:43:06.480Z,74.08
2023-02-11T14:45:35.445Z,74.07
2023-02-11T14:48:12.638Z,74.05
2023-02-11T14:50:51.351Z,74.03
2023-02-11T14:53:22.693Z,74.04
2023-02-11T14:55:54.598Z,73.99
2023-02-11T14:58:32.623Z,74.07
2023-02-11T15:01:01.393Z,74.10
2023-02-11T15:03:40.632Z,74.08
2023-02-11T15:06:07.956Z,74.10
2023-02-11T15:08:38.543Z,74.02
2023-02-11T15:11:12.106Z,74.14
2023-02-11T15:13:39.481Z,74.12
2023-02-11T15:16:10.056Z,74.15
2023-02-11T15:18:43.926Z,74.10
2023-02-11T15:21:11.254Z,74.10
2023-02-11T15:23:40.763Z,74.22
2023-02-11T15:26:14.829Z,74.16
2023-02-11T15:28:49.131Z,74.07
2023-02-11T15:31:20.000Z,74.20
2023-02-11T15:33:47.373Z,74.09
2023-02-11T15:36:15.800Z,74.23
2023-02-11T15:38:43.250Z,74.21
2023-02-11T15:41:38.085Z,74.23
2023-02-11T15:44:05.282Z,74.22
2023-02-11T15:46:41.895Z,74.23
2023-02-11T15:49:19.378Z,74.31
2023-02-11T15:51:47.290Z,74.43
2023-02-11T15:54:27.504Z,74.23
2023-02-11T15:57:01.872Z,74.35
2023-02-11T15:59:35.420Z,74.37
2023-02-11T16:02:30.290Z,74.35
2023-02-11T16:05:00.649Z,74.37
2023-02-11T16:07:43.330Z,74.47
2023-02-11T16:10:17.879Z,74.47
2023-02-11T16:12:56.650Z,74.39
2023-02-11T16:15:41.156Z,74.40
2023-02-11T16:18:31.058Z,74.47
2023-02-11T16:21:05.872Z,74.40
2023-02-11T16:23:37.271Z,74.54
2023-02-11T16:26:19.911Z,74.58
2023-02-11T16:28:47.240Z,74.49
2023-02-11T16:31:14.568Z,74.49
2023-02-11T16:33:41.747Z,74.52
2023-02-11T16:36:19.064Z,74.54
2023-02-11T16:38:46.344Z,74.63
2023-02-11T16:41:13.392Z,74.74
2023-02-11T16:43:40.621Z,74.67
2023-02-11T16:46:09.434Z,74.55
2023-02-11T16:48:38.141Z,74.58
2023-02-11T16:51:08.159Z,74.59
2023-02-11T16:53:35.285Z,74.50
2023-02-11T16:56:02.409Z,74.71
2023-02-11T16:58:29.492Z,74.65
2023-02-11T17:00:57.314Z,74.64
2023-02-11T17:03:29.611Z,74.62
2023-02-11T17:05:57.233Z,74.62
2023-02-11T17:08:24.306Z,74.69
2023-02-11T17:10:51.762Z,74.68
2023-02-11T17:13:19.166Z,74.54
2023-02-11T17:15:46.274Z,74.74
2023-02-11T17:18:17.002Z,74.67
2023-02-11T17:20:44.175Z,74.70
2023-02-11T17:23:11.317Z,74.68
2023-02-11T17:25:39.172Z,74.74
2023-02-11T17:28:08.745Z,74.63
2023-02-11T17:30:35.920Z,74.81
2023-02-11T17:33:03.079Z,74.68
2023-02-11T17:35:30.227Z,74.64
2023-02-11T17:37:58.837Z,74.67
2023-02-11T17:40:26.528Z,74.87
2023-02-11T17:42:53.634Z,74.78
2023-02-11T17:45:22.382Z,74.80
2023-02-11T17:47:49.832Z,74.82
2023-02-11T17:50:16.946Z,74.79
2023-02-11T17:52:44.099Z,74.94
2023-02-11T17:55:11.306Z,74.80
2023-02-11T17:57:38.706Z,74.96
2023-02-11T18:00:06.691Z,74.80
2023-02-11T18:02:39.925Z,74.74
2023-02-11T18:05:07.514Z,74.77
2023-02-11T18:07:34.628Z,74.76
2023-02-11T18:10:01.846Z,74.77
2023-02-11T18:12:29.414Z,74.72
2023-02-11T18:14:58.109Z,74.80
2023-02-11T18:17:25.825Z,74.82
2023-02-11T18:19:56.658Z,74.86
2023-02-11T18:22:24.650Z,74.76
2023-02-11T18:24:53.489Z,74.73
2023-02-11T18:27:21.667Z,74.79
2023-02-11T18:29:48.929Z,74.81
2023-02-11T18:32:16.122Z,74.82
2023-02-11T18:34:43.312Z,74.79
2023-02-11T18:37:11.660Z,74.84
2023-02-11T18:39:38.883Z,74.92
2023-02-11T18:42:06.131Z,74.80
2023-02-11T18:44:33.235Z,74.84
2023-02-11T18:47:00.516Z,74.78
2023-02-11T18:49:27.788Z,74.95
2023-02-11T18:51:55.097Z,74.85
2023-02-11T18:54:22.277Z,74.87
2023-02-11T18:56:49.374Z,74.80
2023-02-11T18:59:16.575Z,74.91
2023-02-11T19:01:46.917Z,74.99
2023-02-11T19:04:19.088Z,74.90
2023-02-11T19:06:49.570Z,74.85
2023-02-11T19:09:19.262Z,74.95
2023-02-11T19:11:54.569Z,74.78
2023-02-11T19:14:21.906Z,74.64
2023-02-11T19:16:51.406Z,74.71
2023-02-11T19:19:19.443Z,74.56
2023-02-11T19:21:47.664Z,74.64
2023-02-11T19:24:18.985Z,74.67
2023-02-11T19:26:47.484Z,74.65
2023-02-11T19:29:14.890Z,74.64
2023-02-11T19:31:43.619Z,74.68
2023-02-11T19:34:13.494Z,74.56
2023-02-11T19:36:40.956Z,74.58
2023-02-11T19:39:09.106Z,74.45
2023-02-11T19:41:36.533Z,74.30
2023-02-11T19:44:05.125Z,74.32
2023-02-11T19:46:36.487Z,74.17
2023-02-11T19:49:04.642Z,74.16
2023-02-11T19:51:33.669Z,73.98
2023-02-11T19:54:01.528Z,74.01
2023-02-11T19:56:29.349Z,74.01
2023-02-11T19:58:56.786Z,74.16
2023-02-11T20:01:25.841Z,74.12
2023-02-11T20:03:54.631Z,74.10
2023-02-11T20:06:28.160Z,74.21
2023-02-11T20:08:58.706Z,74.12
2023-02-11T20:11:28.257Z,74.07
2023-02-11T20:13:56.896Z,74.01
2023-02-11T20:16:40.648Z,73.92
2023-02-11T20:19:16.963Z,73.89
2023-02-11T20:21:47.241Z,73.68
2023-02-11T20:24:19.195Z,73.69
2023-02-11T20:26:48.687Z,73.89
2023-02-11T20:29:18.259Z,73.79
2023-02-11T20:31:45.889Z,73.72
2023-02-11T20:34:13.068Z,73.81
2023-02-11T20:36:40.761Z,73.67
2023-02-11T20:39:08.924Z,73.72
2023-02-11T20:41:40.028Z,73.62
2023-02-11T20:44:10.973Z,73.73
2023-02-11T20:46:40.950Z,73.65
2023-02-11T20:49:11.466Z,73.78
2023-02-11T20:51:39.023Z,73.84
2023-02-11T20:54:06.603Z,73.82
2023-02-11T20:56:37.010Z,73.93
2023-02-11T20:59:05.401Z,73.84
2023-02-11T21:01:35.438Z,73.70
2023-02-11T21:04:06.251Z,73.57
2023-02-11T21:06:38.568Z,73.56
2023-02-11T21:09:07.342Z,73.50
2023-02-11T21:11:34.826Z,73.64
2023-02-11T21:14:02.476Z,73.67
2023-02-11T21:16:29.949Z,73.67
2023-02-11T21:18:57.103Z,73.60
2023-02-11T21:21:24.623Z,73.63
2023-02-11T21:23:51.803Z,73.65
2023-02-11T21:26:19.257Z,73.70
2023-02-11T21:28:46.459Z,73.70
2023-02-11T21:31:21.282Z,73.77
2023-02-11T21:33:49.698Z,73.63
2023-02-11T21:36:17.052Z,73.67
2023-02-11T21:38:44.435Z,73.74
2023-02-11T21:41:11.974Z,73.68
2023-02-11T21:43:39.048Z,73.57
2023-02-11T21:46:11.297Z,73.51
2023-02-11T21:48:38.445Z,73.59
2023-02-11T21:51:07.767Z,73.61
2023-02-11T21:53:35.787Z,73.64
2023-02-11T21:56:11.618Z,73.43
2023-02-11T21:58:39.125Z,73.66
2023-02-11T22:01:18.189Z,73.62
2023-02-11T22:03:46.430Z,73.64
2023-02-11T22:06:21.416Z,73.54
2023-02-11T22:08:50.014Z,73.44
2023-02-11T22:11:17.566Z,73.48
2023-02-11T22:13:45.327Z,73.43
2023-02-11T22:16:15.663Z,73.38
2023-02-11T22:18:46.785Z,73.51
2023-02-11T22:21:16.814Z,73.54
2023-02-11T22:23:44.634Z,73.57
2023-02-11T22:26:17.290Z,73.57
2023-02-11T22:28:44.829Z,73.53
2023-02-11T22:31:14.955Z,73.52
2023-02-11T22:33:42.214Z,73.65
2023-02-11T22:36:18.014Z,73.55
2023-02-11T22:38:45.482Z,73.50
2023-02-11T22:41:13.217Z,73.54
2023-02-11T22:43:42.256Z,73.52
2023-02-11T22:46:11.183Z,73.46
2023-02-11T22:48:38.257Z,73.49
2023-02-11T22:51:12.947Z,73.46
2023-02-11T22:53:40.518Z,73.56
2023-02-11T22:56:15.021Z,73.53
2023-02-11T22:58:43.257Z,73.60
2023-02-11T23:01:10.740Z,73.54
2023-02-11T23:03:38.149Z,73.50
2023-02-11T23:06:05.624Z,73.47
2023-02-11T23:08:33.784Z,73.49
2023-02-11T23:11:08.670Z,73.41
2023-02-11T23:13:38.397Z,73.30
2023-02-11T23:16:07.598Z,73.40
2023-02-11T23:18:36.154Z,73.44
2023-02-11T23:21:12.362Z,73.47
2023-02-11T23:23:40.148Z,73.57
2023-02-11T23:26:11.740Z,73.45
2023-02-11T23:28:39.554Z,73.51
2023-02-11T23:31:19.781Z,73.56
2023-02-11T23:33:48.152Z,73.48
2023-02-11T23:36:17.095Z,73.53
2023-02-11T23:38:44.644Z,73.51
2023-02-11T23:41:12.518Z,73.47
2023-02-11T23:43:40.055Z,73.33
2023-02-11T23:46:08.090Z,73.34
2023-02-11T23:48:40.614Z,73.35
2023-02-11T23:51:09.907Z,73.31
2023-02-11T23:53:38.641Z,73.38
2023-02-11T23:56:14.015Z,73.39
2023-02-11T23:58:41.281Z,73.26
